KAVP Detailed METAR

Nearby METAR Reports

 

KAVP - Avoca/Wilkes B., Pennsylvania, USA
Distance from station: SW 13mi, 22km
Updated: Mon, 01-Mar-2021 04:54 EST
Mist, Overcast
Mist, Overcast
 Wind from calm
Wind: Calm
Temperature: 39°F , 4°C
Dew Point: 37°F , 3°C
Humidity: 93%
Barometer: 29.70 inHg , 1005.8 hPa
Summary: Mist
Clouds: Overcast
Visibility: 6 miles , 10 km
Cloud details: Overcast 1200 ft
2021/03/01 09:54 KAVP 010954Z AUTO 00000KT 6SM BR OVC012 04/03 A2970 RMK AO2 SLP059 T00440033
KMPO - Mt. Pocono, Pennsylvania, USA
Distance from station: SSE 26mi, 43km
Updated: Mon, 01-Mar-2021 04:53 EST
Light rain, Mist, Overcast
Light rain, Mist, Overcast
 Wind from W
Wind: W 3 mph , 6 km/h
Temperature: 36°F , 2°C
Dew Point: 36°F , 2°C
Humidity: 100%
Barometer: 29.67 inHg , 1004.7 hPa
Summary: Light rain, Mist
Clouds: Overcast
Visibility: 2 1/2 miles , 4 km
Cloud details: Overcast 300 ft
2021/03/01 09:53 KMPO 010953Z AUTO 28003KT 2 1/2SM -RA BR OVC003 02/02 A2967 RMK AO2 RAE23B42 SLP062 P0002 T00220017
 
KMSV - Monticello, New York, USA
Distance from station: ENE 43mi, 69km
Updated: Mon, 01-Mar-2021 04:56 EST
Light rain, Overcast
Light rain, Overcast
 Wind from calm
Wind: Calm
Temperature: 36°F , 2°C
Dew Point: 36°F , 2°C
Humidity: 100%
Barometer: 29.69 inHg , 1005.4 hPa
Summary: Light rain
Clouds: Overcast
Visibility: 9 miles , 14 km
Cloud details: Overcast 500 ft
2021/03/01 09:56 KMSV 010956Z AUTO 00000KT 9SM -RA OVC005 02/02 A2969 RMK AO2 SLP065 P0001 T00170017 FZRANO
KFWN - Sussex, New Jersey, USA
Distance from station: ESE 52mi, 84km
Updated: Mon, 01-Mar-2021 04:53 EST
Light rain, Mist, Overcast
Light rain, Mist, Overcast
 Wind from calm
Wind: Calm
Temperature: 36°F , 2°C
Dew Point: 36°F , 2°C
Humidity: 100%
Barometer: 29.71 inHg , 1006.1 hPa
Summary: Light rain, Mist
Clouds: Overcast
Visibility: 3/4 mile , 1.2 km
Cloud details: Overcast 600 ft
2021/03/01 09:53 KFWN 010953Z AUTO 00000KT 3/4SM -RA BR VV006 02/02 A2971 RMK AO2 SLP062 P0001 T00220017
 
K12N - Andover, New Jersey, USA
Distance from station: SE 54mi, 87km
Updated: Mon, 01-Mar-2021 04:54 EST

 Wind from calm
Wind: Calm
Temperature: 36°F , 2°C
Dew Point: 36°F , 2°C
Humidity: 100%
Barometer: 29.71 inHg , 1006.1 hPa
2021/03/01 09:54 K12N 010954Z AUTO 00000KT 02/02 A2971 RMK AO1 SLP069 P0001 T00170017
KBGM - Binghamton, New York, USA
Distance from station: NNW 55mi, 88km
Updated: Mon, 01-Mar-2021 04:53 EST
Light rain, Mist, Overcast
Light rain, Mist, Overcast
 Wind from S
Wind: S 7 mph , 11 km/h
Temperature: 37°F , 3°C
Wind Chill: 32°F , 0°C
Dew Point: 37°F , 3°C
Humidity: 100%
Barometer: 29.61 inHg , 1002.7 hPa
Summary: Light rain, Mist
Clouds: Overcast
Visibility: 1 1/2 miles , 2.4 km
Cloud details: Overcast 200 ft
2021/03/01 09:53 KBGM 010953Z AUTO 18006KT 1 1/2SM -RA BR OVC002 03/03 A2961 RMK AO2 VIS 1 1/4V2 1/2 RAB0854E04B27 SLP036 P0000 T00330033
 
KABE - Allentown, Pennsylvania, USA
Distance from station: S 58mi, 94km
Updated: Mon, 01-Mar-2021 04:51 EST
Light rain, Fog, Overcast
Light rain, Fog, Overcast
 Wind from SW
Wind: SW 5 mph , 7 km/h
Temperature: 36°F , 2°C
Wind Chill: 32°F , 0°C
Dew Point: 34°F , 1°C
Humidity: 93%
Barometer: 29.73 inHg , 1006.8 hPa
Summary: Light rain, Fog
Clouds: Overcast
Visibility: 1/4 mile , 0.4 km
Cloud details: Overcast 200 ft
2021/03/01 09:51 KABE 010951Z 22004KT 1/4SM -RA FG VV002 02/01 A2973 RMK AO2 UPB0853E07B42E44RAB07 SLP070 P0000 T00220011
KXLL - Allentown Queen, Pennsylvania, USA
Distance from station: S 64mi, 103km
Updated: Mon, 01-Mar-2021 04:55 EST
Light rain, Overcast
Light rain, Overcast
 Wind from S
Wind: S 3 mph , 6 km/h
Temperature: 36°F , 2°C
Dew Point: 36°F , 2°C
Humidity: 100%
Barometer: 29.74 inHg , 1007.1 hPa
Summary: Light rain
Clouds: Overcast
Visibility: 1/4 mile , 0.4 km
Cloud details: Overcast 200 ft
2021/03/01 09:55 KXLL 010955Z AUTO 19003KT 1/4SM -RA OVC002 02/02 A2974 RMK AO2
 
KMGJ - Montgomery, New York, USA
Distance from station: E 67mi, 108km
Updated: Mon, 01-Mar-2021 04:54 EST
Light rain, Mist, Overcast
Light rain, Mist, Overcast
 Wind from calm
Wind: Calm
Temperature: 34°F , 1°C
Dew Point: 34°F , 1°C
Humidity: 100%
Barometer: 29.69 inHg , 1005.4 hPa
Summary: Light rain, Mist
Clouds: Overcast
Visibility: 3/4 mile , 1.2 km
Cloud details: Overcast 1000 ft
2021/03/01 09:54 KMGJ 010954Z AUTO 00000KT 3/4SM -RA BR VV010 01/01 A2969 RMK AO2 SLP058 P0002 T00110011
KIPT - Williamsport, Pennsylvania, USA
Distance from station: WSW 72mi, 116km
Updated: Mon, 01-Mar-2021 04:54 EST
Mist, Overcast
Mist, Overcast
 Wind from SE
Wind: SE 3 mph , 6 km/h
Temperature: 37°F , 3°C
Dew Point: 36°F , 2°C
Humidity: 93%
Barometer: 29.70 inHg , 1005.8 hPa
Summary: Mist
Clouds: Overcast
Visibility: 4 miles , 6 km
Cloud details: Mostly cloudy 400 ft
Mostly cloudy 1400 ft
Overcast 7500 ft
2021/03/01 09:54 KIPT 010954Z AUTO 13003KT 4SM UP BR BKN004 BKN014 OVC075 03/02 A2970 RMK AO2 RAE20UPB20 SLP061 P0006 T00280017
 
KUKT - Quakertown Arp, Pennsylvania, USA
Distance from station: S 74mi, 119km
Updated: Mon, 01-Mar-2021 04:55 EST
Fog, Overcast
Fog, Overcast
 Wind from calm
Wind: Calm
Temperature: 36°F , 2°C
Dew Point: 36°F , 2°C
Humidity: 100%
Barometer: 29.72 inHg , 1006.4 hPa
Summary: Fog
Clouds: Overcast
Visibility: 1/4 mile , 0.4 km
Cloud details: Overcast 200 ft
2021/03/01 09:55 KUKT 010955Z AUTO 00000KT 1/4SM FG OVC002 02/02 A2972 RMK A01
KSMQ - Somerville, New Jersey, USA
Distance from station: SE 76mi, 123km
Updated: Mon, 01-Mar-2021 04:53 EST
Light rain, Mist, Overcast
Light rain, Mist, Overcast
 Wind from NW
Wind: NW 3 mph , 6 km/h
Temperature: 37°F , 3°C
Dew Point: 37°F , 3°C
Humidity: 100%
Barometer: 29.71 inHg , 1006.1 hPa
Summary: Light rain, Mist
Clouds: Overcast
Visibility: 6 miles , 10 km
Cloud details: Overcast 1000 ft
2021/03/01 09:53 KSMQ 010953Z AUTO 32003KT 6SM -RA BR OVC010 03/03 A2971 RMK AO2 RAE01B50 SLP063 P0000 T00330028 $
 
KSWF - Newburgh/Stewart, New York, USA
Distance from station: E 77mi, 123km
Updated: Mon, 01-Mar-2021 04:45 EST
Light rain, Mist, Overcast
Light rain, Mist, Overcast
 Wind from calm
Wind: Calm
Temperature: 36°F , 2°C
Dew Point: 36°F , 2°C
Humidity: 100%
Barometer: 29.70 inHg , 1005.8 hPa
Summary: Light rain, Mist
Clouds: Overcast
Visibility: 2 miles , 3 km
Cloud details: Overcast 500 ft
2021/03/01 09:45 KSWF 010945Z 00000KT 2SM -RA BR OVC005 02/02 A2970
KMMU - Morristown Muni, New Jersey, USA
Distance from station: SE 77mi, 124km
Updated: Mon, 01-Mar-2021 04:55 EST
Light rain, Overcast
Light rain, Overcast
 Wind from calm
Wind: Calm
Temperature: 37°F , 3°C
Dew Point: 37°F , 3°C
Humidity: 100%
Barometer: 29.72 inHg , 1006.4 hPa
Summary: Light rain
Clouds: Overcast
Visibility: 7 miles , 11 km
Cloud details: Overcast 400 ft
2021/03/01 09:55 KMMU 010955Z AUTO 00000KT 7SM -RA OVC004 03/03 A2972 RMK AO2
 
KCDW - Caldwell, New Jersey, USA
Distance from station: ESE 79mi, 127km
Updated: Mon, 01-Mar-2021 04:53 EST
Light rain, Mist, Overcast
Light rain, Mist, Overcast
 Wind from calm
Wind: Calm
Temperature: 39°F , 4°C
Dew Point: 37°F , 3°C
Humidity: 93%
Barometer: 29.72 inHg , 1006.4 hPa
Summary: Light rain, Mist
Clouds: Overcast
Visibility: 6 miles , 10 km
Cloud details: Overcast 300 ft
2021/03/01 09:53 KCDW 010953Z AUTO 00000KT 6SM -RA BR OVC003 04/03 A2972 RMK AO2 RAE29B51 SLP071 P0001 T00440033
KRDG - Reading, Pennsylvania, USA
Distance from station: SSW 80mi, 130km
Updated: Mon, 01-Mar-2021 04:54 EST
Light rain, Mist, Overcast
Light rain, Mist, Overcast
 Wind from calm
Wind: Calm
Temperature: 37°F , 3°C
Dew Point: 37°F , 3°C
Humidity: 100%
Barometer: 29.72 inHg , 1006.4 hPa
Summary: Light rain, Mist
Clouds: Overcast
Visibility: 3/4 mile , 1.2 km
Cloud details: Overcast 700 ft
2021/03/01 09:54 KRDG 010954Z AUTO 00000KT 3/4SM R36/P6000FT -RA BR OVC007 03/03 A2972 RMK AO2 SFC VIS 2 SLP072 P0004 T00280028
 
KITH - Ithaca/Tompkins, New York, USA
Distance from station: NW 81mi, 131km
Updated: Mon, 01-Mar-2021 04:56 EST
Overcast
Overcast
 Wind from SSE
Wind: SSE 8 mph , 13 km/h
Temperature: 39°F , 4°C
Wind Chill: 33°F , 1°C
Dew Point: 39°F , 4°C
Humidity: 100%
Barometer: 29.63 inHg , 1003.4 hPa
Clouds: Overcast
Visibility: 10 miles , 16 km
Cloud details: Overcast 700 ft
2021/03/01 09:56 KITH 010956Z AUTO 16007KT 10SM OVC007 04/04 A2963 RMK AO2 SLP041 T00390039
KSEG - Selinsgrove, Pennsylvania, USA
Distance from station: SW 82mi, 132km
Updated: Mon, 01-Mar-2021 04:53 EST
Mist, Overcast
Mist, Overcast
 Wind from S
Wind: S 5 mph , 7 km/h
Temperature: 37°F , 3°C
Wind Chill: 33°F , 1°C
Dew Point: 37°F , 3°C
Humidity: 100%
Barometer: 29.73 inHg , 1006.8 hPa
Summary: Mist
Clouds: Overcast
Visibility: 5 miles , 8 km
Cloud details: Few Clouds 1800 ft
Mostly cloudy 7000 ft
Overcast 9000 ft
2021/03/01 09:53 KSEG 010953Z AUTO 18004KT 5SM UP BR FEW018 BKN070 OVC090 03/03 A2973 RMK AO2 RAE52UPB52 SLP070 P0006 T00280028
 
KELM - Elmira, New York, USA
Distance from station: WNW 82mi, 133km
Updated: Mon, 01-Mar-2021 04:53 EST
Overcast
Overcast
 Wind from calm
Wind: Calm
Temperature: 37°F , 3°C
Dew Point: 36°F , 2°C
Humidity: 93%
Barometer: 29.61 inHg , 1002.7 hPa
Clouds: Overcast
Visibility: 10 miles , 16 km
Cloud details: Overcast 1200 ft
2021/03/01 09:53 KELM 010953Z AUTO 00000KT 10SM OVC012 03/02 A2961 RMK AO2 SLP031 T00330017
KDYL - Doylestown, Pennsylvania, USA
Distance from station: SSE 83mi, 134km
Updated: Mon, 01-Mar-2021 04:40 EST
Light rain, Mist, Overcast
Light rain, Mist, Overcast
 Wind from NW
Wind: NW 3 mph , 6 km/h
Temperature: 39°F , 4°C
Dew Point: 37°F , 3°C
Humidity: 93%
Barometer: 29.72 inHg , 1006.4 hPa
Summary: Light rain, Mist
Clouds: Overcast
Visibility: 3/4 mile , 1.2 km
Cloud details: Overcast 300 ft
2021/03/01 09:40 KDYL 010940Z AUTO 31003KT 3/4SM -RA BR VV003 04/03 A2972 RMK AO2 P0001 T00390028